Time;durP1;ratioP1;P1;durP2;ratioP2;P2;SDS_P1;SDS_P2;PMS_P1;PMS_P2;Temp;Humidity;BMP_temperature;BMP_pressure;BME280_temperature;BME280_humidity;BME280_pressure;Samples;Min_cycle;Max_cycle;Signal;HPM_P1;HPM_P2
2023/02/05 00:01:43;;;;;;;;;;;1.40;80.90;;;;;;5005373;28;89023;-37
2023/02/05 00:04:08;;;;;;;;;;;1.30;80.80;;;;;;5004860;28;89436;-37
2023/02/05 00:06:34;;;;;;;;;;;1.30;81.00;;;;;;5007716;28;87165;-37
2023/02/05 00:09:00;;;;;;;;;;;1.40;81.00;;;;;;5004694;28;89831;-37
2023/02/05 00:11:25;;;;;;;;;;;1.30;81.00;;;;;;5005621;28;87023;-38
2023/02/05 00:13:51;;;;;;;;;;;1.30;81.00;;;;;;5004869;28;87921;-37
2023/02/05 00:16:18;;;;;;;;;;;1.30;81.00;;;;;;5005064;28;88693;-37
2023/02/05 00:18:44;;;;;;;;;;;1.30;80.80;;;;;;5005181;28;86881;-37
2023/02/05 00:21:10;;;;;;;;;;;1.30;80.60;;;;;;5004662;28;88759;-37
2023/02/05 00:23:36;;;;;;;;;;;1.40;80.70;;;;;;5004134;28;88831;-38
2023/02/05 00:26:02;;;;;;;;;;;1.30;80.70;;;;;;5005059;28;87147;-37
2023/02/05 00:28:29;;;;;;;;;;;1.30;80.60;;;;;;5007505;28;88979;-37
2023/02/05 00:30:55;;;;;;;;;;;1.30;80.70;;;;;;5004908;28;87173;-37
2023/02/05 00:33:20;;;;;;;;;;;1.30;80.70;;;;;;5004817;28;88680;-37
2023/02/05 00:35:46;;;;;;;;;;;1.30;80.60;;;;;;5004393;28;88751;-37
2023/02/05 00:38:12;;;;;;;;;;;1.30;80.40;;;;;;5004818;28;87059;-37
2023/02/05 00:40:38;;;;;;;;;;;1.30;80.60;;;;;;5005092;28;89391;-37
2023/02/05 00:43:03;;;;;;;;;;;1.30;80.70;;;;;;5004167;28;89592;-37
2023/02/05 00:45:34;;;;;;;;;;;1.20;80.50;;;;;;5005053;28;87130;-38
2023/02/05 00:48:03;;;;;;;;;;;1.30;80.60;;;;;;5004054;28;89038;-37
2023/02/05 00:50:29;;;;;;;;;;;1.20;80.50;;;;;;5006989;28;91007;-37
2023/02/05 00:52:54;;;;;;;;;;;1.20;80.50;;;;;;5004697;28;88821;-37
2023/02/05 00:55:20;;;;;;;;;;;1.20;80.70;;;;;;5004182;28;88418;-37
2023/02/05 00:57:45;;;;;;;;;;;1.20;80.60;;;;;;5004408;28;87123;-37
2023/02/05 01:00:11;;;;;;;;;;;1.20;80.50;;;;;;5004467;28;87895;-37
2023/02/05 01:02:37;;;;;;;;;;;1.20;80.60;;;;;;5003005;28;89523;-37
2023/02/05 01:05:02;;;;;;;;;;;1.20;80.60;;;;;;5004656;28;86497;-37
2023/02/05 01:07:28;;;;;;;;;;;1.20;80.50;;;;;;5004454;28;87022;-37
2023/02/05 01:09:53;;;;;;;;;;;1.20;80.50;;;;;;5006787;28;89672;-37
2023/02/05 01:12:19;;;;;;;;;;;1.20;80.40;;;;;;5003597;28;88515;-37
2023/02/05 01:14:44;;;;;;;;;;;1.20;80.40;;;;;;5003876;28;87242;-37
2023/02/05 01:17:10;;;;;;;;;;;1.10;81.00;;;;;;5004078;28;87197;-37
2023/02/05 01:19:35;;;;;;;;;;;1.10;80.50;;;;;;5003945;28;88914;-38
2023/02/05 01:22:01;;;;;;;;;;;1.10;80.50;;;;;;5003742;28;89537;-37
2023/02/05 01:24:27;;;;;;;;;;;1.10;80.40;;;;;;5004012;28;87093;-37
2023/02/05 01:26:54;;;;;;;;;;;1.10;80.50;;;;;;5004158;28;88862;-37
2023/02/05 01:29:24;;;;;;;;;;;1.10;80.30;;;;;;5003896;28;88828;-37
2023/02/05 01:31:49;;;;;;;;;;;1.10;80.30;;;;;;5007018;28;87006;-37
2023/02/05 01:34:15;;;;;;;;;;;1.10;80.20;;;;;;5003328;28;88572;-37
2023/02/05 01:36:40;;;;;;;;;;;1.10;80.30;;;;;;5003191;28;88048;-37
2023/02/05 01:39:06;;;;;;;;;;;1.10;80.50;;;;;;5003733;28;90128;-37
2023/02/05 01:41:31;;;;;;;;;;;1.00;80.30;;;;;;5003517;28;89723;-37
2023/02/05 01:44:23;;;;;;;;;;;1.10;80.40;;;;;;5003787;28;87259;-37
2023/02/05 01:46:50;;;;;;;;;;;1.00;80.40;;;;;;5001407;28;88744;-37
2023/02/05 01:49:22;;;;;;;;;;;1.00;80.40;;;;;;5003211;28;90287;-37
2023/02/05 01:51:48;;;;;;;;;;;1.00;80.50;;;;;;5003519;28;87085;-37
2023/02/05 01:54:15;;;;;;;;;;;1.00;80.20;;;;;;5006435;28;88787;-37
2023/02/05 01:56:45;;;;;;;;;;;1.10;80.20;;;;;;5003456;28;87156;-37
2023/02/05 01:59:14;;;;;;;;;;;1.00;80.20;;;;;;5003455;28;88810;-38
2023/02/05 02:01:40;;;;;;;;;;;1.00;80.10;;;;;;5002136;28;90604;-37
2023/02/05 02:04:07;;;;;;;;;;;1.00;80.40;;;;;;5003763;28;87205;-37
2023/02/05 02:06:33;;;;;;;;;;;1.00;80.20;;;;;;5003220;28;87001;-37
2023/02/05 02:08:59;;;;;;;;;;;1.00;80.10;;;;;;5002871;28;89528;-37
2023/02/05 02:11:26;;;;;;;;;;;1.00;80.20;;;;;;5003704;28;87121;-37
2023/02/05 02:13:54;;;;;;;;;;;0.90;80.10;;;;;;5002751;28;88952;-37
2023/02/05 02:16:20;;;;;;;;;;;0.90;80.30;;;;;;5005629;28;89872;-37
2023/02/05 02:18:45;;;;;;;;;;;0.90;80.00;;;;;;5003697;28;88911;-37
2023/02/05 02:21:14;;;;;;;;;;;0.90;80.20;;;;;;5002786;28;89886;-37
2023/02/05 02:23:51;;;;;;;;;;;0.80;80.30;;;;;;5002968;28;87020;-37
2023/02/05 02:26:39;;;;;;;;;;;0.80;80.10;;;;;;5002587;28;89004;-37
2023/02/05 02:29:07;;;;;;;;;;;0.90;80.00;;;;;;5002588;28;89331;-37
2023/02/05 02:31:49;;;;;;;;;;;0.90;80.00;;;;;;5002966;28;87077;-37
2023/02/05 02:34:22;;;;;;;;;;;0.80;80.20;;;;;;5003381;28;87485;-37
2023/02/05 02:37:02;;;;;;;;;;;0.80;80.20;;;;;;5002703;28;89503;-37
2023/02/05 02:39:31;;;;;;;;;;;0.80;80.10;;;;;;5005766;28;86951;-37
2023/02/05 02:42:13;;;;;;;;;;;0.80;80.20;;;;;;5002492;28;89401;-37
2023/02/05 02:44:56;;;;;;;;;;;0.80;80.10;;;;;;5003389;28;86256;-37
2023/02/05 02:47:24;;;;;;;;;;;0.70;80.20;;;;;;5002860;28;87102;-37
2023/02/05 02:50:37;;;;;;;;;;;0.70;80.10;;;;;;5002241;28;89148;-37
2023/02/05 02:53:23;;;;;;;;;;;0.80;80.10;;;;;;4960205;28;88088;-37
2023/02/05 02:55:49;;;;;;;;;;;0.70;80.10;;;;;;4960656;28;89774;-37
2023/02/05 02:58:35;;;;;;;;;;;0.70;80.00;;;;;;4987768;28;89341;-37
2023/02/05 03:01:02;;;;;;;;;;;0.70;80.00;;;;;;5002444;28;87150;-37
2023/02/05 03:03:29;;;;;;;;;;;0.70;80.10;;;;;;5005140;28;87895;-37
2023/02/05 03:05:56;;;;;;;;;;;0.70;80.20;;;;;;5002109;28;86879;-37
2023/02/05 03:08:25;;;;;;;;;;;0.70;80.10;;;;;;5002347;28;87362;-37
2023/02/05 03:11:11;;;;;;;;;;;0.70;80.10;;;;;;5002602;28;89072;-37
2023/02/05 03:13:36;;;;;;;;;;;0.70;80.00;;;;;;5002337;28;87044;-37
2023/02/05 03:16:02;;;;;;;;;;;0.70;80.00;;;;;;5002194;28;87654;-37
2023/02/05 03:18:28;;;;;;;;;;;0.70;80.20;;;;;;5001353;28;90768;-37
2023/02/05 03:20:58;;;;;;;;;;;0.60;80.20;;;;;;5002244;28;87133;-37
2023/02/05 03:23:25;;;;;;;;;;;0.70;80.10;;;;;;5004962;28;87014;-37
2023/02/05 03:25:51;;;;;;;;;;;0.70;80.10;;;;;;5020391;28;87140;-37
2023/02/05 03:28:16;;;;;;;;;;;0.60;80.10;;;;;;5005779;28;88686;-37
2023/02/05 03:31:05;;;;;;;;;;;0.70;80.10;;;;;;5005373;28;89687;-37
2023/02/05 03:33:40;;;;;;;;;;;0.60;80.20;;;;;;4999650;28;87530;-37
2023/02/05 03:36:18;;;;;;;;;;;0.60;80.30;;;;;;5006272;28;89374;-37
2023/02/05 03:39:04;;;;;;;;;;;0.60;80.60;;;;;;5005385;28;89586;-37
2023/02/05 03:41:54;;;;;;;;;;;0.50;80.60;;;;;;4983441;28;87199;-37
2023/02/05 03:44:19;;;;;;;;;;;0.60;80.40;;;;;;5004492;28;89499;-37
2023/02/05 03:46:56;;;;;;;;;;;0.60;80.20;;;;;;5008023;28;89348;-37
2023/02/05 03:49:26;;;;;;;;;;;0.60;80.20;;;;;;5005678;28;89167;-37
2023/02/05 03:51:57;;;;;;;;;;;0.60;80.20;;;;;;5005189;28;89536;-37
2023/02/05 03:54:41;;;;;;;;;;;0.60;80.30;;;;;;5005405;28;87151;-37
2023/02/05 03:57:17;;;;;;;;;;;0.60;80.40;;;;;;5005465;28;88538;-37
2023/02/05 03:59:42;;;;;;;;;;;0.50;80.40;;;;;;5005328;28;87369;-37
2023/02/05 04:02:08;;;;;;;;;;;0.50;80.30;;;;;;5005888;28;86419;-37
2023/02/05 04:04:34;;;;;;;;;;;0.50;80.30;;;;;;5005630;28;88228;-37
2023/02/05 04:07:00;;;;;;;;;;;0.50;80.20;;;;;;5004289;28;89590;-37
2023/02/05 04:09:25;;;;;;;;;;;0.50;80.10;;;;;;5007324;28;88024;-37
2023/02/05 04:11:51;;;;;;;;;;;0.50;80.00;;;;;;5004941;28;88292;-37
2023/02/05 04:14:16;;;;;;;;;;;0.50;80.00;;;;;;5004798;28;87119;-37
2023/02/05 04:16:42;;;;;;;;;;;0.50;79.90;;;;;;5005070;28;88651;-38
2023/02/05 04:19:07;;;;;;;;;;;0.60;80.00;;;;;;5004753;28;89881;-37
2023/02/05 04:21:33;;;;;;;;;;;0.50;80.00;;;;;;5004826;28;87398;-37
2023/02/05 04:23:58;;;;;;;;;;;0.50;80.10;;;;;;5004891;28;88809;-37
2023/02/05 04:26:24;;;;;;;;;;;0.50;80.00;;;;;;5005163;28;88726;-37
2023/02/05 04:28:49;;;;;;;;;;;0.50;80.10;;;;;;5005088;28;87044;-37
2023/02/05 04:31:15;;;;;;;;;;;0.40;80.10;;;;;;5007520;28;88377;-37
2023/02/05 04:33:40;;;;;;;;;;;0.40;80.20;;;;;;5004240;28;87992;-37
2023/02/05 04:36:06;;;;;;;;;;;0.40;80.30;;;;;;5004868;28;89021;-37
2023/02/05 04:38:32;;;;;;;;;;;0.40;80.20;;;;;;5004168;28;90212;-37
2023/02/05 04:40:58;;;;;;;;;;;0.40;80.20;;;;;;5005043;28;87195;-37
2023/02/05 04:43:24;;;;;;;;;;;0.40;80.30;;;;;;5004558;28;89012;-37
2023/02/05 04:45:49;;;;;;;;;;;0.40;80.10;;;;;;5004413;28;88330;-37
2023/02/05 04:48:15;;;;;;;;;;;0.40;79.90;;;;;;5004586;28;87414;-37
2023/02/05 04:50:41;;;;;;;;;;;0.40;79.80;;;;;;5005318;28;87602;-37
2023/02/05 04:53:06;;;;;;;;;;;0.30;79.90;;;;;;5006977;28;89527;-37
2023/02/05 04:55:31;;;;;;;;;;;0.30;80.00;;;;;;5004776;28;87508;-37
2023/02/05 04:57:58;;;;;;;;;;;0.30;80.10;;;;;;5003433;28;90683;-37
2023/02/05 05:00:24;;;;;;;;;;;0.30;80.10;;;;;;5004270;28;87159;-37
2023/02/05 05:02:50;;;;;;;;;;;0.30;79.70;;;;;;5004373;28;88773;-37
2023/02/05 05:05:15;;;;;;;;;;;0.40;79.80;;;;;;5003304;28;89862;-37
2023/02/05 05:07:41;;;;;;;;;;;0.30;79.80;;;;;;5004440;28;87072;-37
2023/02/05 05:10:07;;;;;;;;;;;0.30;79.90;;;;;;5004381;28;88819;-37
2023/02/05 05:12:33;;;;;;;;;;;0.30;79.80;;;;;;5003866;28;89171;-37
2023/02/05 05:14:58;;;;;;;;;;;0.30;79.70;;;;;;5007383;28;86190;-37
2023/02/05 05:17:24;;;;;;;;;;;0.30;79.70;;;;;;5003769;28;89636;-37
2023/02/05 05:19:49;;;;;;;;;;;0.30;79.80;;;;;;5004001;28;86975;-37
2023/02/05 05:22:15;;;;;;;;;;;0.30;79.80;;;;;;5003301;28;89218;-37
2023/02/05 05:24:40;;;;;;;;;;;0.30;79.70;;;;;;5004008;28;88035;-37
2023/02/05 05:27:06;;;;;;;;;;;0.20;79.70;;;;;;5004404;28;86968;-37
2023/02/05 05:29:31;;;;;;;;;;;0.20;79.80;;;;;;5003766;28;89133;-37
2023/02/05 05:31:57;;;;;;;;;;;0.20;79.80;;;;;;5003527;28;89534;-37
2023/02/05 05:34:22;;;;;;;;;;;0.20;79.70;;;;;;5007034;28;87300;-37
2023/02/05 05:36:48;;;;;;;;;;;0.20;79.80;;;;;;5003278;28;89550;-37
2023/02/05 05:44:42;;;;;;;;;;;0.20;79.70;;;;;;5002850;28;87256;-37
2023/02/05 05:47:07;;;;;;;;;;;0.20;79.60;;;;;;5002790;28;87910;-37
2023/02/05 05:49:33;;;;;;;;;;;0.20;79.80;;;;;;5003373;28;89837;-37
2023/02/05 05:51:58;;;;;;;;;;;0.10;79.80;;;;;;5003217;28;89354;-38
2023/02/05 05:54:24;;;;;;;;;;;0.10;79.80;;;;;;5003578;28;87152;-37
2023/02/05 05:56:49;;;;;;;;;;;0.10;79.80;;;;;;5006115;28;89471;-37
2023/02/05 05:59:15;;;;;;;;;;;0.10;79.90;;;;;;5003594;28;87116;-37
2023/02/05 06:01:40;;;;;;;;;;;0.10;79.90;;;;;;5003613;28;88792;-37
2023/02/05 06:04:06;;;;;;;;;;;0.10;79.90;;;;;;5003718;28;86457;-37
2023/02/05 06:06:31;;;;;;;;;;;0.10;79.90;;;;;;5002815;28;90001;-37
2023/02/05 06:08:57;;;;;;;;;;;0.00;80.00;;;;;;5003160;28;89028;-37
2023/02/05 06:11:22;;;;;;;;;;;0.00;80.00;;;;;;5002323;28;90554;-37
2023/02/05 06:13:48;;;;;;;;;;;0.10;79.90;;;;;;5003333;28;87349;-37
2023/02/05 06:16:13;;;;;;;;;;;0.00;79.80;;;;;;5003356;28;87239;-37
2023/02/05 06:18:39;;;;;;;;;;;0.10;79.80;;;;;;5005643;28;88346;-37
2023/02/05 06:21:04;;;;;;;;;;;0.00;79.90;;;;;;5003066;28;88896;-37
2023/02/05 06:23:30;;;;;;;;;;;0.00;79.90;;;;;;5002815;28;89569;-37
2023/02/05 06:25:56;;;;;;;;;;;-0.10;80.00;;;;;;5003027;28;87107;-37
2023/02/05 06:28:21;;;;;;;;;;;0.00;80.10;;;;;;5003461;28;88768;-37
2023/02/05 06:30:47;;;;;;;;;;;0.00;80.00;;;;;;5002833;28;90045;-37
2023/02/05 06:33:12;;;;;;;;;;;0.00;79.90;;;;;;5002904;28;87113;-37
2023/02/05 06:35:39;;;;;;;;;;;0.00;79.80;;;;;;5002329;28;88808;-37
2023/02/05 06:38:05;;;;;;;;;;;0.00;79.90;;;;;;5002604;28;89482;-37
2023/02/05 06:40:30;;;;;;;;;;;0.00;80.00;;;;;;5005833;28;87090;-37
2023/02/05 06:42:56;;;;;;;;;;;0.00;80.00;;;;;;5002528;28;89585;-37
2023/02/05 06:45:21;;;;;;;;;;;-0.10;79.90;;;;;;5003032;28;87114;-37
2023/02/05 06:47:47;;;;;;;;;;;-0.10;80.00;;;;;;5002764;28;89038;-37
2023/02/05 06:50:13;;;;;;;;;;;-0.10;80.00;;;;;;5002425;28;88420;-37
2023/02/05 06:52:38;;;;;;;;;;;-0.10;80.00;;;;;;5003177;28;86798;-37
2023/02/05 06:55:04;;;;;;;;;;;-0.10;80.00;;;;;;5002789;28;88219;-37
2023/02/05 06:57:30;;;;;;;;;;;-0.10;79.90;;;;;;5002200;28;90195;-37
2023/02/05 06:59:56;;;;;;;;;;;-0.10;79.90;;;;;;5000851;28;88046;-37
2023/02/05 07:02:22;;;;;;;;;;;-0.10;79.90;;;;;;5005059;28;89910;-37
2023/02/05 07:04:47;;;;;;;;;;;-0.10;79.90;;;;;;5002237;28;87203;-37
2023/02/05 07:07:15;;;;;;;;;;;-0.10;79.90;;;;;;5002208;28;88848;-37
2023/02/05 07:09:41;;;;;;;;;;;-0.10;79.90;;;;;;5001922;28;89334;-37
2023/02/05 07:12:06;;;;;;;;;;;-0.10;79.80;;;;;;5002586;28;86901;-37
2023/02/05 07:14:35;;;;;;;;;;;-0.10;79.70;;;;;;5002438;28;88662;-37
2023/02/05 07:17:01;;;;;;;;;;;-0.10;79.70;;;;;;5002591;28;88619;-37
2023/02/05 07:19:26;;;;;;;;;;;-0.10;79.70;;;;;;5002128;28;87170;-37
2023/02/05 07:21:52;;;;;;;;;;;-0.20;79.60;;;;;;5005269;28;87393;-38
2023/02/05 07:24:17;;;;;;;;;;;-0.10;79.70;;;;;;5001738;28;87978;-37
2023/02/05 07:26:44;;;;;;;;;;;-0.10;79.70;;;;;;5002318;28;89771;-37
2023/02/05 07:29:09;;;;;;;;;;;-0.10;79.60;;;;;;5001806;28;89481;-38
2023/02/05 07:31:36;;;;;;;;;;;-0.20;79.70;;;;;;5002316;28;87142;-37
2023/02/05 07:34:01;;;;;;;;;;;-0.20;79.70;;;;;;5002110;28;87817;-37
2023/02/05 07:36:27;;;;;;;;;;;-0.20;79.60;;;;;;5001741;28;89863;-37
2023/02/05 07:38:52;;;;;;;;;;;-0.20;79.70;;;;;;5002137;28;87121;-37
2023/02/05 07:41:18;;;;;;;;;;;-0.20;79.60;;;;;;5002554;28;88960;-37
2023/02/05 07:43:43;;;;;;;;;;;-0.20;79.70;;;;;;5004600;28;89563;-37
2023/02/05 07:46:10;;;;;;;;;;;-0.30;79.70;;;;;;5002151;28;89404;-37
2023/02/05 07:48:36;;;;;;;;;;;-0.30;79.80;;;;;;5000488;28;90396;-37
2023/02/05 07:51:02;;;;;;;;;;;-0.30;79.90;;;;;;5002098;28;87152;-37
2023/02/05 07:53:27;;;;;;;;;;;-0.20;79.80;;;;;;5001956;28;86883;-37
2023/02/05 07:55:53;;;;;;;;;;;-0.30;79.80;;;;;;5001655;28;89530;-38
2023/02/05 07:58:18;;;;;;;;;;;-0.20;79.70;;;;;;5001966;28;87151;-37
2023/02/05 08:00:44;;;;;;;;;;;-0.30;79.70;;;;;;5002006;28;88824;-37
2023/02/05 08:03:09;;;;;;;;;;;-0.30;79.60;;;;;;5001304;28;89652;-37
2023/02/05 08:05:35;;;;;;;;;;;-0.30;79.60;;;;;;5004510;28;86414;-37
2023/02/05 08:08:01;;;;;;;;;;;-0.30;79.70;;;;;;5001627;28;87321;-37
2023/02/05 08:10:26;;;;;;;;;;;-0.30;79.60;;;;;;5002520;28;87117;-37
2023/02/05 08:12:52;;;;;;;;;;;-0.30;79.60;;;;;;5004763;28;88992;-37
2023/02/05 08:15:18;;;;;;;;;;;-0.30;79.70;;;;;;5004726;28;89434;-38
2023/02/05 08:17:43;;;;;;;;;;;-0.30;79.60;;;;;;5005139;28;87217;-37
2023/02/05 08:20:09;;;;;;;;;;;-0.30;79.50;;;;;;5005046;28;89368;-37
2023/02/05 08:22:36;;;;;;;;;;;-0.30;79.60;;;;;;5004566;28;89754;-37
2023/02/05 08:25:03;;;;;;;;;;;-0.30;79.30;;;;;;5005174;28;87057;-38
2023/02/05 08:27:30;;;;;;;;;;;-0.30;79.50;;;;;;5007706;28;88583;-38
2023/02/05 08:29:55;;;;;;;;;;;-0.30;79.50;;;;;;5005133;28;86384;-37
2023/02/05 08:32:21;;;;;;;;;;;-0.30;79.50;;;;;;5004919;28;87451;-38
2023/02/05 08:34:46;;;;;;;;;;;-0.30;79.50;;;;;;5004397;28;88582;-37
2023/02/05 08:37:12;;;;;;;;;;;-0.30;79.50;;;;;;5004071;28;88282;-37
2023/02/05 08:39:37;;;;;;;;;;;-0.30;79.50;;;;;;5004666;28;89865;-37
2023/02/05 08:42:03;;;;;;;;;;;-0.30;79.60;;;;;;5004738;28;87366;-37
2023/02/05 08:44:29;;;;;;;;;;;-0.30;79.40;;;;;;5004820;28;87114;-37
2023/02/05 08:46:54;;;;;;;;;;;-0.30;79.40;;;;;;5004709;28;89036;-37
2023/02/05 08:49:20;;;;;;;;;;;-0.30;79.40;;;;;;5007049;28;88056;-37
2023/02/05 08:51:45;;;;;;;;;;;-0.30;79.30;;;;;;5004702;28;88094;-37
2023/02/05 08:54:12;;;;;;;;;;;-0.20;79.30;;;;;;5005038;28;86864;-37
2023/02/05 08:56:41;;;;;;;;;;;-0.30;79.40;;;;;;5004527;28;87143;-38
2023/02/05 08:59:07;;;;;;;;;;;-0.30;79.40;;;;;;5004534;28;88704;-37
2023/02/05 09:01:36;;;;;;;;;;;-0.30;79.40;;;;;;5003401;28;90259;-37
2023/02/05 09:04:04;;;;;;;;;;;-0.30;79.40;;;;;;5003914;28;87135;-37
2023/02/05 09:06:30;;;;;;;;;;;-0.30;79.40;;;;;;5003877;28;88755;-37
2023/02/05 09:08:55;;;;;;;;;;;-0.30;79.30;;;;;;5004236;28;87023;-37
2023/02/05 09:11:21;;;;;;;;;;;-0.30;79.20;;;;;;5007294;28;87043;-37
2023/02/05 09:13:47;;;;;;;;;;;-0.30;79.20;;;;;;5003936;28;90790;-37
2023/02/05 09:16:13;;;;;;;;;;;-0.30;79.20;;;;;;5003898;28;87184;-37
2023/02/05 09:18:38;;;;;;;;;;;-0.30;79.10;;;;;;5004407;28;88923;-37
2023/02/05 09:21:07;;;;;;;;;;;-0.30;79.20;;;;;;5003712;28;89442;-37
2023/02/05 09:23:33;;;;;;;;;;;-0.30;79.20;;;;;;5003232;28;87142;-37
2023/02/05 09:25:59;;;;;;;;;;;-0.30;79.20;;;;;;5003578;28;87977;-37
2023/02/05 09:28:24;;;;;;;;;;;-0.30;79.20;;;;;;5003773;28;88762;-37
2023/02/05 09:30:50;;;;;;;;;;;-0.30;79.10;;;;;;5006998;28;87169;-37
2023/02/05 09:33:16;;;;;;;;;;;-0.30;79.20;;;;;;5003499;28;89493;-37
2023/02/05 09:35:41;;;;;;;;;;;-0.40;79.20;;;;;;5003909;28;87563;-37
2023/02/05 09:38:07;;;;;;;;;;;-0.30;79.20;;;;;;5003968;28;89142;-37
2023/02/05 09:40:58;;;;;;;;;;;-0.30;79.20;;;;;;5003538;28;88549;-37
2023/02/05 09:43:42;;;;;;;;;;;-0.40;79.10;;;;;;4998956;28;86287;-37
2023/02/05 09:46:18;;;;;;;;;;;-0.40;79.10;;;;;;5004020;28;88017;-37
2023/02/05 09:48:51;;;;;;;;;;;-0.40;79.00;;;;;;5003165;28;89400;-37
2023/02/05 09:51:19;;;;;;;;;;;-0.40;79.10;;;;;;5003217;28;88301;-38
2023/02/05 09:53:47;;;;;;;;;;;-0.40;79.10;;;;;;5006140;28;89797;-37
2023/02/05 09:56:13;;;;;;;;;;;-0.40;79.30;;;;;;5003499;28;87190;-37
2023/02/05 09:58:40;;;;;;;;;;;-0.40;79.20;;;;;;5003615;28;88738;-37
2023/02/05 10:01:11;;;;;;;;;;;-0.40;79.60;;;;;;5002969;28;91098;-37
2023/02/05 10:03:43;;;;;;;;;;;-0.40;79.00;;;;;;5003587;28;87004;-37
2023/02/05 10:06:08;;;;;;;;;;;-0.40;79.10;;;;;;5003058;28;88887;-41
2023/02/05 10:08:49;;;;;;;;;;;-0.30;75.20;;;;;;5003603;28;86712;-38
2023/02/05 10:11:18;;;;;;;;;;;-0.40;74.30;;;;;;5003242;28;87112;-37
2023/02/05 10:13:46;;;;;;;;;;;-0.30;75.80;;;;;;5003363;28;88364;-37
2023/02/05 10:16:11;;;;;;;;;;;-0.40;76.60;;;;;;5005157;28;89500;-37
2023/02/05 10:18:52;;;;;;;;;;;-0.40;77.20;;;;;;5003489;28;88128;-37
2023/02/05 10:21:20;;;;;;;;;;;-0.40;77.40;;;;;;5002648;28;89293;-37
2023/02/05 10:23:55;;;;;;;;;;;-0.40;77.80;;;;;;5003149;28;87129;-37
2023/02/05 10:26:22;;;;;;;;;;;-0.40;77.90;;;;;;5003327;28;87185;-37
2023/02/05 10:28:51;;;;;;;;;;;-0.40;77.90;;;;;;5002595;28;88541;-37
2023/02/05 10:31:16;;;;;;;;;;;-0.40;78.10;;;;;;5003378;28;87157;-37
2023/02/05 10:33:48;;;;;;;;;;;-0.40;78.10;;;;;;5003123;28;87725;-37
2023/02/05 10:36:14;;;;;;;;;;;-0.40;78.30;;;;;;5002631;28;89365;-37
2023/02/05 10:38:43;;;;;;;;;;;-0.40;78.30;;;;;;5005901;28;87081;-37
2023/02/05 10:41:18;;;;;;;;;;;-0.40;78.30;;;;;;5001910;28;90300;-37
2023/02/05 10:43:46;;;;;;;;;;;-0.40;78.30;;;;;;5002836;28;87053;-37
2023/02/05 10:46:12;;;;;;;;;;;-0.40;78.20;;;;;;5002722;28;88925;-37
2023/02/05 10:48:45;;;;;;;;;;;-0.40;78.30;;;;;;5002353;28;89563;-38
2023/02/05 10:51:16;;;;;;;;;;;-0.40;78.10;;;;;;5002848;28;87172;-38
2023/02/05 10:53:41;;;;;;;;;;;-0.40;78.30;;;;;;5002717;28;88675;-37
2023/02/05 10:56:07;;;;;;;;;;;-0.40;78.50;;;;;;5002713;28;88199;-37
2023/02/05 10:58:46;;;;;;;;;;;-0.50;78.50;;;;;;5003271;28;86460;-37
2023/02/05 11:01:14;;;;;;;;;;;-0.40;78.40;;;;;;5005218;28;88100;-37
2023/02/05 11:03:44;;;;;;;;;;;-0.40;78.30;;;;;;5002475;28;87135;-37
2023/02/05 11:06:10;;;;;;;;;;;-0.40;78.30;;;;;;5001777;28;88800;-37
2023/02/05 11:08:37;;;;;;;;;;;-0.40;78.30;;;;;;5002400;28;87945;-37
2023/02/05 11:11:03;;;;;;;;;;;-0.50;78.30;;;;;;5018041;28;87339;-37
2023/02/05 11:13:29;;;;;;;;;;;-0.40;78.60;;;;;;5002371;28;88956;-37
2023/02/05 11:15:55;;;;;;;;;;;-0.40;78.60;;;;;;5001877;28;89570;-37
2023/02/05 11:18:26;;;;;;;;;;;-0.50;78.70;;;;;;5002202;28;87216;-37
2023/02/05 11:20:59;;;;;;;;;;;-0.40;78.80;;;;;;5002553;28;87303;-38
2023/02/05 11:23:25;;;;;;;;;;;-0.50;78.70;;;;;;5005645;28;87223;-37
2023/02/05 11:25:55;;;;;;;;;;;-0.50;78.90;;;;;;5002403;28;88399;-37
2023/02/05 11:28:23;;;;;;;;;;;-0.50;79.10;;;;;;5001875;28;89453;-37
2023/02/05 11:30:49;;;;;;;;;;;-0.50;79.10;;;;;;5001476;28;88076;-37
2023/02/05 11:33:20;;;;;;;;;;;-0.50;79.20;;;;;;5002195;28;89615;-37
2023/02/05 11:35:51;;;;;;;;;;;-0.50;79.20;;;;;;5001992;28;87798;-37
2023/02/05 11:38:37;;;;;;;;;;;-0.50;79.20;;;;;;5002100;28;87103;-38
2023/02/05 11:41:04;;;;;;;;;;;-0.50;79.20;;;;;;4994200;28;88213;-37
2023/02/05 11:43:31;;;;;;;;;;;-0.60;79.30;;;;;;5004525;28;87906;-37
2023/02/05 11:45:58;;;;;;;;;;;-0.50;79.20;;;;;;5003190;28;88939;-37
2023/02/05 11:48:36;;;;;;;;;;;-0.60;79.40;;;;;;5005642;28;88814;-37
2023/02/05 11:51:03;;;;;;;;;;;-0.60;79.40;;;;;;5005276;28;87579;-37
2023/02/05 11:53:31;;;;;;;;;;;-0.60;79.40;;;;;;5005498;28;88943;-37
2023/02/05 11:55:58;;;;;;;;;;;-0.60;79.50;;;;;;5004454;28;89501;-37
2023/02/05 11:58:30;;;;;;;;;;;-0.60;79.40;;;;;;5005657;28;87166;-37
2023/02/05 12:01:00;;;;;;;;;;;-0.60;79.40;;;;;;5005243;28;89173;-37
2023/02/05 12:03:31;;;;;;;;;;;-0.70;79.40;;;;;;5004793;28;89535;-37
2023/02/05 12:06:03;;;;;;;;;;;-0.60;79.70;;;;;;5007724;28;87023;-37
2023/02/05 12:08:36;;;;;;;;;;;-0.60;79.60;;;;;;5004737;28;89307;-37
2023/02/05 12:11:01;;;;;;;;;;;-0.70;79.40;;;;;;5005297;28;87244;-37
2023/02/05 12:13:38;;;;;;;;;;;-0.60;79.40;;;;;;5005687;28;87730;-38
2023/02/05 12:16:22;;;;;;;;;;;-0.60;79.50;;;;;;5004737;28;88710;-37
2023/02/05 12:19:06;;;;;;;;;;;-0.60;79.50;;;;;;5005154;28;87217;-37
2023/02/05 12:21:48;;;;;;;;;;;-0.60;79.50;;;;;;5004481;28;88829;-37
2023/02/05 12:24:13;;;;;;;;;;;-0.60;79.50;;;;;;5004928;28;88099;-37
2023/02/05 12:26:41;;;;;;;;;;;-0.70;79.50;;;;;;5005229;28;87166;-37
2023/02/05 12:29:12;;;;;;;;;;;-0.70;79.60;;;;;;5007401;28;88791;-37
2023/02/05 12:31:43;;;;;;;;;;;-0.70;79.70;;;;;;5005058;28;87068;-37
2023/02/05 12:34:12;;;;;;;;;;;-0.70;79.70;;;;;;5004913;28;89023;-37
2023/02/05 12:36:44;;;;;;;;;;;-0.70;79.70;;;;;;5004837;28;87966;-37
2023/02/05 12:39:12;;;;;;;;;;;-0.70;79.60;;;;;;5005270;28;86289;-37
2023/02/05 12:41:44;;;;;;;;;;;-0.70;79.70;;;;;;5005022;28;88040;-37
2023/02/05 12:44:20;;;;;;;;;;;-0.70;79.80;;;;;;5004392;28;89701;-37
2023/02/05 12:47:04;;;;;;;;;;;-0.70;79.80;;;;;;5004096;28;87929;-38
2023/02/05 12:49:39;;;;;;;;;;;-0.70;79.80;;;;;;5004384;28;89605;-37
2023/02/05 12:52:10;;;;;;;;;;;-0.70;80.00;;;;;;5007145;28;89396;-38
2023/02/05 12:54:45;;;;;;;;;;;-0.80;79.90;;;;;;5004667;28;88636;-37
2023/02/05 12:57:24;;;;;;;;;;;-0.70;79.90;;;;;;5002967;28;89346;-38
2023/02/05 12:59:56;;;;;;;;;;;-0.70;79.90;;;;;;5004529;28;87057;-37
2023/02/05 13:02:26;;;;;;;;;;;-0.70;80.00;;;;;;5004177;28;87782;-37
2023/02/05 13:04:57;;;;;;;;;;;-0.70;80.00;;;;;;5004755;28;87500;-38
2023/02/05 13:07:31;;;;;;;;;;;-0.70;80.00;;;;;;5004446;28;87145;-37
2023/02/05 13:10:12;;;;;;;;;;;-0.70;80.00;;;;;;5004326;28;88095;-37
2023/02/05 13:12:40;;;;;;;;;;;-0.80;80.00;;;;;;5003478;28;90674;-37
2023/02/05 13:15:14;;;;;;;;;;;-0.80;80.10;;;;;;5007207;28;87012;-37
2023/02/05 13:17:44;;;;;;;;;;;-0.80;80.10;;;;;;5003588;28;89371;-37
2023/02/05 13:20:21;;;;;;;;;;;-0.80;80.20;;;;;;5004314;28;87124;-37
2023/02/05 13:28:39;;;;;;;;;;;-0.80;80.30;;;;;;5004299;28;87008;-37
2023/02/05 13:31:06;;;;;;;;;;;-0.80;80.20;;;;;;5001214;28;88478;-37
2023/02/05 13:33:31;;;;;;;;;;;-0.80;80.20;;;;;;5003342;28;89404;-37
2023/02/05 13:36:16;;;;;;;;;;;-0.80;80.20;;;;;;5004086;28;86988;-37
2023/02/05 13:38:48;;;;;;;;;;;-0.80;80.10;;;;;;5005842;28;88730;-37
2023/02/05 13:41:16;;;;;;;;;;;-0.80;80.10;;;;;;5004070;28;86899;-37
2023/02/05 13:43:48;;;;;;;;;;;-0.80;80.30;;;;;;5003925;28;87919;-37
2023/02/05 13:46:13;;;;;;;;;;;-0.80;80.30;;;;;;5003350;28;89869;-37
2023/02/05 13:48:58;;;;;;;;;;;-0.80;80.20;;;;;;5003526;28;87062;-37
2023/02/05 13:51:43;;;;;;;;;;;-0.80;80.20;;;;;;5003772;28;89240;-37
2023/02/05 13:54:27;;;;;;;;;;;-0.70;80.20;;;;;;5003168;28;89629;-37
2023/02/05 13:56:58;;;;;;;;;;;-0.80;80.20;;;;;;5004248;28;86173;-37
2023/02/05 13:59:35;;;;;;;;;;;-0.70;80.20;;;;;;5006090;28;88099;-37
2023/02/05 14:02:01;;;;;;;;;;;-0.70;80.20;;;;;;5003451;28;86855;-37
2023/02/05 14:04:29;;;;;;;;;;;-0.80;80.10;;;;;;5003163;28;88695;-37
2023/02/05 14:06:56;;;;;;;;;;;-0.70;80.10;;;;;;5002776;28;89460;-37
2023/02/05 14:09:29;;;;;;;;;;;-0.80;80.20;;;;;;5002893;28;87207;-37
2023/02/05 14:11:54;;;;;;;;;;;-0.80;80.20;;;;;;5003500;28;89071;-37
2023/02/05 14:14:30;;;;;;;;;;;-0.80;80.20;;;;;;5002875;28;89217;-38
2023/02/05 14:16:58;;;;;;;;;;;-0.80;80.30;;;;;;5003218;28;87106;-37
2023/02/05 14:19:25;;;;;;;;;;;-0.80;80.40;;;;;;5003380;28;88912;-37
2023/02/05 14:21:59;;;;;;;;;;;-0.80;80.40;;;;;;5006160;28;88891;-37
2023/02/05 14:24:24;;;;;;;;;;;-0.80;80.50;;;;;;5003255;28;87954;-38
2023/02/05 14:26:55;;;;;;;;;;;-0.80;80.50;;;;;;5002809;28;89627;-37
2023/02/05 14:29:41;;;;;;;;;;;-0.90;80.50;;;;;;5002179;28;88037;-37
2023/02/05 14:32:10;;;;;;;;;;;-0.90;80.60;;;;;;5002528;28;89896;-37
2023/02/05 14:34:36;;;;;;;;;;;-0.90;80.70;;;;;;5002596;28;89478;-37
2023/02/05 14:37:02;;;;;;;;;;;-0.90;80.60;;;;;;5003111;28;86967;-37
2023/02/05 14:39:31;;;;;;;;;;;-0.90;80.70;;;;;;5002958;28;87382;-37
2023/02/05 14:41:59;;;;;;;;;;;-0.90;80.70;;;;;;5002565;28;89365;-37
2023/02/05 14:44:30;;;;;;;;;;;-0.90;80.70;;;;;;5005552;28;87157;-37